Time;durP1;ratioP1;P1;durP2;ratioP2;P2;SDS_P1;SDS_P2;PMS_P1;PMS_P2;Temp;Humidity;BMP_temperature;BMP_pressure;BME280_temperature;BME280_humidity;BME280_pressure;Samples;Min_cycle;Max_cycle;Signal;HPM_P1;HPM_P2
2022/04/26 03:36:35;;;;;;;17.40;9.80;;;;;;;10.24;65.68;100936.34;4897338;29;20075;-84
2022/04/26 03:39:01;;;;;;;20.85;9.93;;;;;;;10.16;66.42;100933.31;4897232;29;20044;-84
2022/04/26 03:41:26;;;;;;;18.30;11.18;;;;;;;10.24;65.87;100936.34;4911752;29;20039;-83
2022/04/26 03:43:51;;;;;;;14.45;10.25;;;;;;;10.38;65.63;100937.34;4897012;29;20041;-84
2022/04/26 03:46:17;;;;;;;22.27;9.93;;;;;;;10.03;66.10;100940.19;4896461;29;20460;-84
2022/04/26 03:48:42;;;;;;;15.50;10.25;;;;;;;9.98;66.44;100937.03;4896684;29;20079;-84
2022/04/26 03:51:07;;;;;;;24.02;11.75;;;;;;;10.19;65.85;100942.78;4896924;29;20024;-84
2022/04/26 03:53:33;;;;;;;20.75;11.07;;;;;;;10.02;66.41;100946.41;4897184;29;20028;-84
2022/04/26 03:55:58;;;;;;;18.50;11.10;;;;;;;10.00;66.76;100945.66;4895799;29;20029;-84
2022/04/26 03:58:25;;;;;;;19.02;10.35;;;;;;;9.93;66.96;100937.25;4896827;29;20495;-84
2022/04/26 04:00:50;;;;;;;22.95;11.95;;;;;;;9.89;67.28;100943.59;4896485;29;20040;-85
2022/04/26 04:03:16;;;;;;;25.77;11.57;;;;;;;9.90;67.01;100943.53;4896759;29;20025;-83
2022/04/26 04:05:42;;;;;;;21.58;11.50;;;;;;;9.89;67.05;100941.84;4896938;29;20037;-83
2022/04/26 04:08:07;;;;;;;22.05;10.90;;;;;;;9.96;67.20;100942.34;4897097;29;20029;-84
2022/04/26 04:10:33;;;;;;;16.80;11.05;;;;;;;9.82;67.04;100943.13;4896794;29;20051;-84
2022/04/26 04:12:59;;;;;;;18.67;9.90;;;;;;;9.95;66.90;100950.28;4896900;29;20032;-84
2022/04/26 04:15:24;;;;;;;21.88;10.98;;;;;;;9.96;66.86;100947.59;4896550;29;20029;-84
2022/04/26 04:17:50;;;;;;;18.67;10.60;;;;;;;9.93;66.37;100958.25;4896914;29;20080;-84
2022/04/26 04:20:15;;;;;;;15.63;10.23;;;;;;;9.97;66.01;100953.66;4896975;29;20036;-84
2022/04/26 04:22:41;;;;;;;19.92;10.98;;;;;;;9.97;66.62;100953.66;4896816;29;20035;-84
2022/04/26 04:25:07;;;;;;;22.33;11.25;;;;;;;9.96;66.66;100946.75;4896960;29;20123;-84
2022/04/26 04:27:32;;;;;;;18.15;9.80;;;;;;;10.08;65.57;100961.78;4897063;29;20610;-84
2022/04/26 04:30:02;;;;;;;16.92;10.30;;;;;;;10.05;65.42;100954.06;4911033;29;20056;-84
2022/04/26 04:32:30;;;;;;;16.58;10.02;;;;;;;10.02;66.34;100962.13;4896835;29;20116;-84
2022/04/26 04:34:56;;;;;;;17.48;10.07;;;;;;;10.07;65.55;100962.72;4896820;29;20048;-84
2022/04/26 04:37:22;;;;;;;15.82;9.82;;;;;;;10.01;65.42;100966.56;4896881;29;20447;-84
2022/04/26 04:39:51;;;;;;;18.60;11.27;;;;;;;9.91;65.79;100965.34;4896654;29;20494;-84
2022/04/26 04:42:17;;;;;;;18.17;11.02;;;;;;;9.80;65.98;100965.13;4896792;29;20037;-84
2022/04/26 04:44:42;;;;;;;15.40;10.48;;;;;;;9.96;66.17;100972.97;4896508;29;20093;-84
2022/04/26 04:47:08;;;;;;;15.23;10.05;;;;;;;9.93;65.74;100969.59;4895539;29;20029;-84
2022/04/26 04:49:34;;;;;;;14.32;9.80;;;;;;;9.96;65.95;100978.22;4896689;29;20080;-83
2022/04/26 04:51:59;;;;;;;17.90;10.10;;;;;;;9.93;66.10;100980.09;4896637;29;20029;-84
2022/04/26 04:54:24;;;;;;;16.48;9.25;;;;;;;9.84;65.84;100990.25;4896846;29;20079;-84
2022/04/26 04:56:50;;;;;;;17.00;9.18;;;;;;;9.85;65.24;100990.19;4896844;29;20104;-85
2022/04/26 04:59:16;;;;;;;16.80;10.35;;;;;;;9.90;65.26;100996.00;4900382;29;20030;-84
2022/04/26 05:01:41;;;;;;;15.13;9.45;;;;;;;9.79;65.20;100997.53;4900253;29;20028;-84
2022/04/26 05:04:07;;;;;;;15.13;9.85;;;;;;;9.84;65.62;101012.06;4898975;29;20505;-84
2022/04/26 05:06:32;;;;;;;15.38;9.48;;;;;;;9.97;65.79;101016.63;4900281;29;20220;-84
2022/04/26 05:08:57;;;;;;;12.18;8.70;;;;;;;10.03;65.56;101003.16;4901178;29;20487;-84
2022/04/26 05:11:23;;;;;;;12.13;8.95;;;;;;;10.11;65.30;101014.94;4911691;29;20537;-84
2022/04/26 05:13:48;;;;;;;16.98;9.50;;;;;;;10.21;64.93;101020.53;4906641;29;20376;-84
2022/04/26 05:16:14;;;;;;;15.90;10.23;;;;;;;10.26;65.33;101020.25;4919165;29;20024;-84
2022/04/26 05:18:39;;;;;;;15.00;9.32;;;;;;;10.30;65.44;101020.00;4917026;29;20058;-85
2022/04/26 05:21:13;;;;;;;14.80;8.65;;;;;;;10.42;64.90;101033.38;4918623;29;20027;-84
2022/04/26 05:26:23;;;;;;;16.02;8.70;;;;;;;10.68;64.16;101031.88;4913529;29;20032;-84
2022/04/26 05:28:49;;;;;;;16.58;9.52;;;;;;;10.84;64.04;101035.31;4897143;29;20033;-84
2022/04/26 05:31:14;;;;;;;15.82;9.88;;;;;;;10.88;63.81;101042.06;4905337;29;20111;-85
2022/04/26 05:33:40;;;;;;;16.80;10.07;;;;;;;10.86;63.46;101049.19;4917707;29;20024;-84
2022/04/26 05:36:05;;;;;;;12.43;8.85;;;;;;;10.98;63.42;101047.63;4918734;29;20040;-84
2022/04/26 05:38:30;;;;;;;12.18;9.00;;;;;;;11.10;63.43;101052.13;4911050;29;20040;-84
2022/04/26 05:40:56;;;;;;;19.40;10.55;;;;;;;11.11;63.04;101059.06;4899724;29;20036;-84
2022/04/26 05:43:21;;;;;;;17.10;9.57;;;;;;;11.08;62.57;101066.31;4899279;29;20071;-84
2022/04/26 05:45:46;;;;;;;17.23;9.35;;;;;;;11.24;62.96;101069.72;4899579;29;20032;-84
2022/04/26 05:48:13;;;;;;;20.90;10.68;;;;;;;11.33;63.06;101060.41;4908174;29;20028;-84
2022/04/26 05:50:39;;;;;;;15.45;9.13;;;;;;;11.47;62.59;101059.56;4897974;29;20024;-85
2022/04/26 05:53:05;;;;;;;14.68;9.70;;;;;;;11.52;62.37;101066.25;4899306;29;20083;-84
2022/04/26 05:55:30;;;;;;;14.05;9.13;;;;;;;11.73;61.86;101071.13;4899640;29;20388;-84
2022/04/26 05:57:55;;;;;;;14.15;9.20;;;;;;;11.84;61.08;101076.53;4900179;29;20119;-85
2022/04/26 06:00:21;;;;;;;16.70;10.20;;;;;;;11.92;60.00;101076.09;4899296;29;20033;-85
2022/04/26 06:02:49;;;;;;;16.52;9.13;;;;;;;12.00;59.88;101076.47;4899481;29;20077;-84
2022/04/26 06:05:14;;;;;;;20.80;9.50;;;;;;;11.88;59.78;101080.69;4899550;29;20040;-84
2022/04/26 06:07:39;;;;;;;15.38;8.93;;;;;;;12.00;59.73;101088.78;4899458;29;20171;-85
2022/04/26 06:10:05;;;;;;;18.58;10.30;;;;;;;11.98;59.88;101086.25;4898876;29;20128;-85
2022/04/26 06:12:31;;;;;;;15.38;9.07;;;;;;;12.06;59.50;101083.13;4898745;29;20040;-84
2022/04/26 06:14:57;;;;;;;14.98;8.82;;;;;;;12.31;59.14;101098.22;4898953;29;20021;-87
2022/04/26 06:17:23;;;;;;;16.15;8.90;;;;;;;12.36;57.78;101084.75;4899497;29;20025;-85
2022/04/26 06:19:49;;;;;;;18.38;9.32;;;;;;;12.30;58.57;101097.38;4914261;29;20060;-85
2022/04/26 06:22:15;;;;;;;25.52;11.20;;;;;;;12.58;57.91;101100.84;4918319;29;20020;-86
2022/04/26 06:24:40;;;;;;;18.25;10.15;;;;;;;12.68;57.32;101107.22;4916760;29;20035;-85
2022/04/26 06:27:06;;;;;;;16.02;8.93;;;;;;;12.73;56.71;101108.69;4909292;29;20036;-86
2022/04/26 06:29:32;;;;;;;15.10;8.50;;;;;;;12.74;57.60;101121.78;4913662;29;20067;-85
2022/04/26 06:31:57;;;;;;;15.70;9.05;;;;;;;12.80;57.16;101116.09;4917533;29;20032;-85
2022/04/26 06:34:23;;;;;;;16.20;9.23;;;;;;;12.89;56.36;101119.91;4917940;29;20059;-85
2022/04/26 06:36:48;;;;;;;14.55;8.77;;;;;;;13.04;57.00;101118.06;4913580;29;20036;-85
2022/04/26 06:39:13;;;;;;;20.40;9.55;;;;;;;12.93;57.09;101120.53;4899626;29;20090;-85
2022/04/26 06:41:39;;;;;;;17.13;9.20;;;;;;;13.26;56.15;101126.19;4898266;29;20502;-85
2022/04/26 06:44:04;;;;;;;14.52;8.98;;;;;;;13.65;55.41;101120.97;4903849;29;20037;-86
2022/04/26 06:46:30;;;;;;;14.98;8.25;;;;;;;14.60;51.94;101116.84;4898696;29;20029;-86
2022/04/26 06:48:58;;;;;;;17.33;7.70;;;;;;;16.03;49.52;101115.66;4898720;29;20112;-86
2022/04/26 06:51:23;;;;;;;11.57;6.75;;;;;;;17.13;46.92;101116.41;4898900;29;20036;-85
2022/04/26 06:53:49;;;;;;;10.60;6.82;;;;;;;18.20;45.21;101108.94;4896207;29;20028;-86
2022/04/26 06:56:14;;;;;;;15.02;7.88;;;;;;;19.19;42.37;101106.19;4896046;29;20043;-85
2022/04/26 06:58:39;;;;;;;10.43;6.00;;;;;;;20.01;40.75;101114.47;4895792;29;20037;-86
2022/04/26 07:01:05;;;;;;;9.23;5.50;;;;;;;21.14;38.89;101120.22;4895915;29;20032;-85
2022/04/26 07:03:30;;;;;;;11.00;5.43;;;;;;;21.82;37.32;101115.97;4896847;29;20020;-85
2022/04/26 07:05:56;;;;;;;8.90;5.00;;;;;;;22.43;36.42;101112.16;4895163;29;20028;-85
2022/04/26 07:08:21;;;;;;;10.48;5.45;;;;;;;22.81;34.99;101114.38;4894953;29;20060;-86
2022/04/26 07:10:46;;;;;;;14.02;5.43;;;;;;;23.24;34.27;101110.53;4896008;29;20373;-85
2022/04/26 07:13:15;;;;;;;9.70;4.97;;;;;;;23.53;33.80;101119.84;4895504;29;20036;-85
2022/04/26 07:15:40;;;;;;;9.43;4.60;;;;;;;24.25;33.03;101121.56;4896326;29;20407;-86
2022/04/26 07:18:06;;;;;;;10.85;4.97;;;;;;;24.46;32.05;101124.47;4896142;29;20123;-86
2022/04/26 07:20:31;;;;;;;28.35;6.10;;;;;;;24.45;32.23;101125.50;4895456;29;20036;-86
2022/04/26 07:22:57;;;;;;;22.73;5.43;;;;;;;25.08;31.11;101122.66;4897333;29;20028;-86
2022/04/26 07:25:23;;;;;;;11.93;4.65;;;;;;;24.81;31.61;101130.28;4901084;29;20561;-85
2022/04/26 07:27:48;;;;;;;9.73;4.18;;;;;;;24.79;31.73;101128.81;4899497;29;20024;-86
2022/04/26 07:30:13;;;;;;;10.52;4.40;;;;;;;25.38;30.46;101131.66;4897024;29;20031;-85
2022/04/26 07:35:23;;;;;;;11.07;3.65;;;;;;;25.68;30.28;101121.72;4892997;29;20563;-85
2022/04/26 07:37:48;;;;;;;13.07;4.20;;;;;;;25.52;29.49;101116.56;4896324;29;20112;-85
2022/04/26 07:40:14;;;;;;;12.13;3.75;;;;;;;25.30;29.78;101129.88;4896283;29;20548;-85
2022/04/26 07:42:39;;;;;;;7.35;3.58;;;;;;;25.32;30.24;101127.84;4896224;29;20020;-86
2022/04/26 07:45:05;;;;;;;8.57;3.83;;;;;;;25.61;29.44;101126.19;4896626;29;20112;-85
2022/04/26 07:47:31;;;;;;;9.85;4.72;;;;;;;26.30;28.63;101130.38;4896445;29;20028;-85
2022/04/26 07:49:57;;;;;;;43.67;5.53;;;;;;;25.03;30.38;101133.97;4896321;29;20403;-85
2022/04/26 07:52:23;;;;;;;6.32;3.42;;;;;;;25.90;28.52;101132.56;4892804;29;20033;-86
2022/04/26 07:54:49;;;;;;;9.02;4.07;;;;;;;26.23;29.35;101129.47;4895685;29;20544;-85
2022/04/26 07:57:15;;;;;;;5.85;2.90;;;;;;;26.62;28.22;101136.31;4896466;29;20033;-86
2022/04/26 07:59:40;;;;;;;5.72;3.25;;;;;;;26.95;26.83;101139.31;4898495;29;20031;-86
2022/04/26 08:02:07;;;;;;;6.55;3.28;;;;;;;26.86;26.16;101135.94;4895664;29;20028;-85
2022/04/26 08:04:32;;;;;;;6.70;3.25;;;;;;;26.62;27.39;101136.31;4894094;29;20037;-86
2022/04/26 08:06:57;;;;;;;6.85;3.30;;;;;;;26.67;26.53;101133.91;4910000;29;20096;-85
2022/04/26 08:09:23;;;;;;;6.22;2.80;;;;;;;26.73;27.00;101137.69;4894020;29;20040;-86
2022/04/26 08:11:49;;;;;;;11.18;3.00;;;;;;;27.21;26.30;101127.94;4895678;29;20372;-86
2022/04/26 08:14:15;;;;;;;9.18;3.83;;;;;;;27.35;26.38;101133.44;4895205;29;20032;-85
2022/04/26 08:16:40;;;;;;;12.65;3.40;;;;;;;27.60;26.21;101139.19;4895952;29;20399;-86
2022/04/26 08:19:05;;;;;;;4.30;2.80;;;;;;;28.07;25.78;101138.41;4895448;29;20083;-85
2022/04/26 08:21:31;;;;;;;6.97;3.35;;;;;;;27.88;25.66;101133.75;4893935;29;20158;-86
2022/04/26 08:29:25;;;;;;;6.78;2.78;;;;;;;28.68;24.13;101145.66;4895974;29;20058;-85
2022/04/26 08:31:52;;;;;;;4.65;2.97;;;;;;;28.55;23.68;101145.63;4896020;29;20490;-85
2022/04/26 08:34:17;;;;;;;6.20;2.92;;;;;;;28.14;24.07;101149.25;4898493;29;20032;-85
2022/04/26 08:36:43;;;;;;;4.63;2.92;;;;;;;28.63;23.27;101147.28;4899671;29;20059;-84
2022/04/26 08:39:08;;;;;;;6.25;3.08;;;;;;;29.07;23.22;101148.59;4898333;29;20083;-83
2022/04/26 08:41:34;;;;;;;6.63;2.80;;;;;;;28.67;23.43;101148.53;4898532;29;20024;-84
2022/04/26 08:43:59;;;;;;;3.78;2.53;;;;;;;28.88;23.17;101153.75;4898383;29;20036;-84
2022/04/26 08:50:59;;;;;;;7.10;3.05;;;;;;;29.02;23.62;101153.78;4914220;29;20037;-84
2022/04/26 08:52:03;;;;;;;3.95;2.20;;;;;;;29.03;22.72;101150.03;4899294;29;20067;-84
2022/04/26 08:54:30;;;;;;;4.93;2.53;;;;;;;29.06;22.04;101157.72;4899345;29;20476;-84
2022/04/26 08:56:56;;;;;;;8.35;2.35;;;;;;;29.15;22.33;101155.66;4883048;29;20065;-84
2022/04/26 08:59:21;;;;;;;5.13;2.97;;;;;;;28.64;23.52;101160.59;4884204;29;20064;-84
2022/04/26 09:01:47;;;;;;;4.80;2.80;;;;;;;28.96;22.46;101168.94;4900173;29;20036;-84
2022/04/26 09:04:15;;;;;;;3.47;2.30;;;;;;;29.29;22.30;101162.75;4899094;29;20475;-84
2022/04/26 09:06:45;;;;;;;4.22;2.53;;;;;;;28.55;22.66;101164.53;4899976;29;20056;-84
2022/04/26 09:09:12;;;;;;;7.35;2.45;;;;;;;29.48;21.80;101166.44;4898574;29;20024;-84
2022/04/26 09:11:38;;;;;;;4.88;2.80;;;;;;;29.09;22.63;101162.72;4885904;29;20035;-84
2022/04/26 09:14:07;;;;;;;4.22;2.55;;;;;;;27.97;22.01;101162.25;4899685;29;20024;-83
2022/04/26 09:16:33;;;;;;;3.38;2.08;;;;;;;27.91;22.42;101163.06;4899942;29;20116;-83
2022/04/26 09:19:00;;;;;;;3.70;2.00;;;;;;;28.71;22.45;101160.59;4899466;29;20060;-83
2022/04/26 09:21:28;;;;;;;3.67;2.67;;;;;;;29.17;22.53;101176.06;4899395;29;20067;-84
2022/04/26 09:24:06;;;;;;;5.20;2.10;;;;;;;28.51;22.35;101165.97;4899409;29;20500;-84
2022/04/26 09:26:35;;;;;;;3.22;2.03;;;;;;;29.07;22.27;101162.94;4899514;29;20475;-83
2022/04/26 09:29:02;;;;;;;5.15;2.20;;;;;;;29.25;21.50;101162.31;4899822;29;20066;-84
2022/04/26 09:31:30;;;;;;;3.28;2.00;;;;;;;28.67;21.63;101168.31;4899376;29;20025;-84
2022/04/26 09:34:06;;;;;;;3.85;2.05;;;;;;;29.27;21.48;101175.66;4898554;29;20025;-84
2022/04/26 09:36:41;;;;;;;6.28;2.40;;;;;;;27.80;22.44;101166.28;4899137;29;20507;-84
2022/04/26 09:39:08;;;;;;;4.13;2.45;;;;;;;28.05;22.66;101178.25;4899175;29;20033;-83
2022/04/26 09:41:34;;;;;;;5.43;2.65;;;;;;;27.84;22.57;101171.09;4898756;29;20033;-84
2022/04/26 09:44:07;;;;;;;6.10;2.38;;;;;;;28.48;22.37;101172.59;4899043;29;20491;-84
2022/04/26 09:46:49;;;;;;;3.63;2.35;;;;;;;28.55;22.30;101177.22;4899109;29;20515;-84
2022/04/26 09:49:21;;;;;;;4.40;2.67;;;;;;;28.91;22.41;101167.91;4898671;29;20103;-83
2022/04/26 09:51:48;;;;;;;5.80;3.58;;;;;;;29.46;22.12;101168.53;4898050;29;20036;-84
2022/04/26 09:54:14;;;;;;;5.32;2.63;;;;;;;28.45;22.64;101167.59;4896608;29;20024;-83
2022/04/26 09:56:43;;;;;;;4.85;2.30;;;;;;;29.37;22.13;101175.22;4897908;29;20267;-84
2022/04/26 09:59:13;;;;;;;4.22;2.45;;;;;;;29.66;21.52;101172.03;4898114;29;20127;-84
2022/04/26 10:01:41;;;;;;;3.20;2.10;;;;;;;29.82;20.92;101178.06;4899156;29;20459;-84
2022/04/26 10:04:08;;;;;;;6.43;2.30;;;;;;;30.63;21.03;101163.94;4897587;29;20040;-85
2022/04/26 10:06:36;;;;;;;4.40;2.30;;;;;;;30.47;21.04;101166.31;4894357;29;20028;-85
2022/04/26 10:09:03;;;;;;;6.72;2.17;;;;;;;30.08;20.74;101176.31;4898743;29;20029;-85
2022/04/26 10:11:29;;;;;;;3.30;2.08;;;;;;;30.59;21.05;101165.44;4914406;29;20044;-85
2022/04/26 10:13:55;;;;;;;4.55;2.00;;;;;;;30.71;19.77;101165.56;4913183;29;20032;-85
2022/04/26 10:16:21;;;;;;;3.10;1.98;;;;;;;30.94;20.50;101177.72;4898525;29;20139;-85
2022/04/26 10:18:48;;;;;;;2.85;2.03;;;;;;;30.02;20.38;101165.28;4896909;29;20100;-84
2022/04/26 10:21:22;;;;;;;5.30;1.95;;;;;;;29.84;20.85;101175.97;4895397;29;20036;-84
2022/04/26 10:23:50;;;;;;;3.90;1.92;;;;;;;30.10;20.79;101161.50;4895742;29;20025;-84
2022/04/26 10:28:50;;;;;;;5.20;2.30;;;;;;;30.03;20.43;101179.63;4879552;29;20029;-84
2022/04/26 10:31:16;;;;;;;2.83;2.42;;;;;;;30.16;20.12;101173.34;4895612;29;20021;-84
2022/04/26 10:33:42;;;;;;;6.85;2.45;;;;;;;29.93;20.82;101169.25;4898511;29;20032;-85
2022/04/26 10:36:29;;;;;;;2.72;2.15;;;;;;;30.48;20.87;101181.56;4897478;29;20025;-85
2022/04/26 10:39:09;;;;;;;3.95;2.00;;;;;;;30.49;19.94;101184.06;4894660;29;20024;-84
2022/04/26 10:41:40;;;;;;;7.90;2.40;;;;;;;30.40;20.25;101180.75;4897946;29;20100;-84
2022/04/26 10:44:17;;;;;;;4.15;2.10;;;;;;;30.58;20.53;101180.00;4897136;29;20033;-84
2022/04/26 10:46:45;;;;;;;2.53;1.92;;;;;;;30.21;21.46;101176.22;4898433;29;20029;-84
2022/04/26 10:49:26;;;;;;;3.72;2.08;;;;;;;30.86;19.91;101178.78;4897847;29;20092;-84
2022/04/26 10:51:56;;;;;;;3.30;1.92;;;;;;;31.00;19.77;101184.97;4897713;29;20060;-84
2022/04/26 10:54:51;;;;;;;3.45;2.13;;;;;;;31.42;19.05;101182.53;4896724;29;20032;-84
2022/04/26 10:57:17;;;;;;;4.25;2.08;;;;;;;30.81;19.42;101187.59;4881203;29;20064;-83
2022/04/26 10:59:48;;;;;;;3.05;2.33;;;;;;;31.13;20.36;101179.44;4879283;29;20057;-84
2022/04/26 11:02:16;;;;;;;5.05;2.00;;;;;;;31.54;19.91;101172.59;4879251;29;20399;-84
2022/04/26 11:04:41;;;;;;;4.10;1.98;;;;;;;31.56;19.83;101183.25;4883216;29;20035;-84
2022/04/26 11:07:22;;;;;;;4.85;2.83;;;;;;;31.23;19.13;101185.19;4897667;29;20054;-84
2022/04/26 11:09:49;;;;;;;3.00;1.90;;;;;;;31.48;19.48;101176.22;4897435;29;20480;-84
2022/04/26 11:12:18;;;;;;;3.60;1.90;;;;;;;31.15;18.91;101171.91;4897286;29;20040;-83
2022/04/26 11:14:45;;;;;;;3.55;2.08;;;;;;;31.51;19.15;101174.94;4897421;29;20104;-84
2022/04/26 11:17:10;;;;;;;3.15;2.05;;;;;;;31.75;19.03;101165.88;4911566;29;20431;-84
2022/04/26 11:19:37;;;;;;;3.58;2.20;;;;;;;31.29;19.12;101167.19;4897736;29;20056;-84
2022/04/26 11:22:04;;;;;;;3.28;2.05;;;;;;;31.14;19.27;101170.25;4897286;29;20072;-84
2022/04/26 11:29:57;;;;;;;4.18;1.80;;;;;;;30.75;19.71;101169.50;4896769;29;20617;-83
2022/04/26 11:32:30;;;;;;;3.80;2.47;;;;;;;30.63;19.54;101169.38;4895974;29;20438;-84
2022/04/26 11:34:56;;;;;;;4.55;2.35;;;;;;;31.32;19.72;101171.31;4897089;29;20514;-84
2022/04/26 11:37:22;;;;;;;4.00;2.20;;;;;;;31.15;20.66;101160.22;4897142;29;20032;-83
2022/04/26 11:39:47;;;;;;;5.78;2.33;;;;;;;30.62;18.76;101175.00;4897134;29;20379;-84
2022/04/26 11:42:13;;;;;;;1.95;1.52;;;;;;;30.68;19.19;101173.28;4897255;29;20024;-84
2022/04/26 11:44:58;;;;;;;2.88;1.85;;;;;;;31.70;19.16;101170.34;4897002;29;20039;-84
2022/04/26 11:47:57;;;;;;;3.53;2.00;;;;;;;31.81;18.54;101170.44;4896995;29;20537;-84
2022/04/26 11:50:24;;;;;;;1.85;1.60;;;;;;;31.54;18.41;101174.50;4885767;29;20060;-84
2022/04/26 11:52:53;;;;;;;3.30;1.85;;;;;;;31.37;18.90;101172.31;4897288;29;20028;-84
2022/04/26 11:55:36;;;;;;;4.60;2.10;;;;;;;31.19;18.75;101173.13;4897184;29;20127;-84
2022/04/26 11:58:14;;;;;;;1.95;1.67;;;;;;;31.47;18.58;101176.44;4897243;29;20035;-84
2022/04/26 12:00:57;;;;;;;5.22;2.35;;;;;;;31.57;19.06;101168.59;4896856;29;20031;-84
2022/04/26 12:03:25;;;;;;;3.72;1.63;;;;;;;31.86;19.42;101169.75;4896764;29;20036;-84
2022/04/26 12:05:54;;;;;;;2.88;1.90;;;;;;;32.33;18.89;101172.72;4895491;29;20119;-84
2022/04/26 12:08:21;;;;;;;3.92;1.90;;;;;;;31.97;19.38;101169.00;4897085;29;20518;-84
2022/04/26 12:10:48;;;;;;;2.45;2.00;;;;;;;32.15;18.65;101170.03;4897096;29;20034;-85
2022/04/26 12:13:14;;;;;;;4.88;1.70;;;;;;;32.58;18.50;101171.75;4896733;29;20037;-84
2022/04/26 12:15:39;;;;;;;3.30;1.95;;;;;;;32.65;18.48;101169.78;4895711;29;20035;-84
2022/04/26 12:18:15;;;;;;;2.75;1.55;;;;;;;31.51;18.86;101173.03;4896780;29;20125;-85
2022/04/26 12:21:02;;;;;;;2.13;1.50;;;;;;;32.39;17.61;101174.50;4896820;29;20056;-84
2022/04/26 12:23:30;;;;;;;1.90;1.70;;;;;;;31.20;18.42;101180.22;4895644;29;20063;-84
2022/04/26 12:26:04;;;;;;;5.57;1.77;;;;;;;30.95;18.93;101182.09;4896802;29;20039;-84
2022/04/26 12:28:30;;;;;;;3.03;1.80;;;;;;;31.01;18.92;101173.06;4896725;29;20024;-84
2022/04/26 12:30:56;;;;;;;2.92;1.65;;;;;;;31.34;19.77;101163.78;4896719;29;20028;-84
2022/04/26 12:33:30;;;;;;;3.30;1.88;;;;;;;31.07;19.17;101179.50;4896444;29;20368;-84
2022/04/26 12:35:57;;;;;;;5.18;1.98;;;;;;;31.09;19.42;101166.53;4896555;29;20036;-84
2022/04/26 12:38:22;;;;;;;3.17;1.83;;;;;;;30.98;19.39;101171.63;4896824;29;20024;-84
2022/04/26 12:41:03;;;;;;;2.45;1.50;;;;;;;31.21;18.29;101168.28;4896630;29;20028;-84
2022/04/26 12:43:29;;;;;;;2.47;1.52;;;;;;;31.67;17.96;101162.66;4896764;29;20067;-84
2022/04/26 12:46:03;;;;;;;2.45;1.30;;;;;;;30.93;18.38;101157.91;4895361;29;20040;-84
2022/04/26 12:51:22;;;;;;;1.90;1.20;;;;;;;31.02;18.11;101161.16;4896524;29;20044;-84
2022/04/26 12:53:49;;;;;;;2.25;1.30;;;;;;;30.59;18.36;101162.72;4896628;29;20040;-84
2022/04/26 12:56:15;;;;;;;1.63;1.25;;;;;;;31.04;18.24;101153.63;4895532;29;20115;-84
2022/04/26 12:58:44;;;;;;;1.30;1.10;;;;;;;31.33;18.00;101160.25;4896703;29;20045;-84
2022/04/26 13:01:10;;;;;;;4.10;1.95;;;;;;;30.18;18.56;101163.13;4896698;29;20040;-84
2022/04/26 13:03:36;;;;;;;4.57;1.40;;;;;;;30.02;19.14;101157.16;4896845;29;20111;-84
2022/04/26 13:06:09;;;;;;;2.17;1.20;;;;;;;29.71;19.67;101170.56;4895290;29;20526;-84
2022/04/26 13:08:36;;;;;;;3.60;1.50;;;;;;;29.29;19.27;101157.34;4897348;29;20075;-84
2022/04/26 13:11:01;;;;;;;3.70;1.52;;;;;;;28.57;20.25;101145.41;4905150;29;20025;-84
2022/04/26 13:13:27;;;;;;;3.75;1.10;;;;;;;27.81;20.38;101154.47;4910828;29;20039;-85
2022/04/26 13:15:53;;;;;;;2.70;1.67;;;;;;;27.13;21.69;101157.72;4904009;29;20028;-85
2022/04/26 13:18:19;;;;;;;2.45;1.50;;;;;;;26.96;22.30;101150.94;4897489;29;20088;-85
2022/04/26 13:20:45;;;;;;;2.72;1.80;;;;;;;26.43;22.56;101162.84;4899473;29;20032;-85
2022/04/26 13:23:14;;;;;;;1.92;1.50;;;;;;;26.93;22.59;101156.72;4917677;29;20032;-85
2022/04/26 13:25:41;;;;;;;2.00;1.52;;;;;;;26.64;22.72;101147.72;4917246;29;20032;-85
2022/04/26 13:28:08;;;;;;;5.88;1.88;;;;;;;26.21;23.16;101161.97;4918562;29;20449;-85
2022/04/26 13:30:33;;;;;;;1.95;1.70;;;;;;;26.05;22.89;101156.81;4918555;29;20028;-85
2022/04/26 13:32:59;;;;;;;3.30;1.88;;;;;;;25.61;23.49;101153.09;4918499;29;20111;-85
2022/04/26 13:35:25;;;;;;;2.78;1.98;;;;;;;26.12;23.08;101158.53;4918358;29;20043;-85
2022/04/26 13:37:52;;;;;;;1.90;1.48;;;;;;;25.24;24.34;101157.50;4901556;29;20037;-85
2022/04/26 13:40:18;;;;;;;3.55;1.67;;;;;;;24.62;24.23;101154.94;4899309;29;20024;-84
2022/04/26 13:42:43;;;;;;;3.13;2.00;;;;;;;24.76;25.23;101156.00;4899349;29;20099;-85
2022/04/26 13:45:09;;;;;;;2.17;1.60;;;;;;;25.28;23.24;101152.59;4899772;29;20036;-84
2022/04/26 13:47:36;;;;;;;2.22;1.65;;;;;;;25.27;23.76;101149.03;4899535;29;20483;-84
2022/04/26 13:50:03;;;;;;;2.03;1.20;;;;;;;24.45;25.46;101152.34;4898951;29;20045;-85
2022/04/26 13:52:29;;;;;;;3.08;1.88;;;;;;;23.69;25.42;101156.50;4897757;29;20040;-83
2022/04/26 13:54:54;;;;;;;2.53;1.88;;;;;;;23.76;25.29;101149.44;4898638;29;20415;-83
2022/04/26 13:57:20;;;;;;;2.45;1.40;;;;;;;24.06;26.75;101147.84;4899003;29;20124;-83
2022/04/26 13:59:45;;;;;;;3.13;1.70;;;;;;;24.09;26.56;101142.13;4897792;29;20264;-84
2022/04/26 14:02:11;;;;;;;5.90;2.13;;;;;;;24.56;25.68;101148.44;4898973;29;20024;-84
2022/04/26 14:04:37;;;;;;;3.45;1.73;;;;;;;24.73;25.51;101144.63;4895583;29;20037;-85
2022/04/26 14:07:03;;;;;;;4.15;1.70;;;;;;;25.11;25.40;101152.69;4897016;29;20044;-86
2022/04/26 14:09:28;;;;;;;2.38;1.58;;;;;;;23.98;26.38;101145.19;4898628;29;20428;-85
2022/04/26 14:11:55;;;;;;;4.95;1.80;;;;;;;24.35;25.59;101149.88;4899196;29;20484;-85
2022/04/26 14:22:33;;;;;;;2.08;1.35;;;;;;;23.59;27.53;101140.59;4899107;29;20040;-86
2022/04/26 14:25:00;;;;;;;2.50;1.70;;;;;;;23.99;26.89;101132.63;4899150;29;20036;-86
2022/04/26 14:27:27;;;;;;;3.35;1.80;;;;;;;24.45;26.72;101128.19;4899000;29;20035;-86
2022/04/26 14:29:52;;;;;;;4.63;2.03;;;;;;;24.65;25.72;101131.25;4898344;29;20020;-86
2022/04/26 14:32:17;;;;;;;3.60;1.70;;;;;;;24.46;25.31;101131.69;4899148;29;20551;-86
2022/04/26 14:34:43;;;;;;;4.80;1.95;;;;;;;24.25;25.96;101126.94;4898763;29;20028;-86
2022/04/26 14:37:09;;;;;;;3.15;1.55;;;;;;;24.13;25.89;101132.72;4898741;29;20104;-86
2022/04/26 14:39:36;;;;;;;4.03;1.70;;;;;;;23.83;25.86;101126.31;4899084;29;20480;-86
2022/04/26 14:42:02;;;;;;;2.05;1.40;;;;;;;23.67;26.19;101131.72;4913341;29;20080;-86
2022/04/26 14:44:28;;;;;;;1.88;1.40;;;;;;;23.01;27.51;101133.66;4913570;29;20036;-86
2022/04/26 14:46:53;;;;;;;2.95;1.30;;;;;;;22.55;27.54;101132.28;4898939;29;20630;-86
2022/04/26 14:49:18;;;;;;;4.22;1.98;;;;;;;22.49;27.66;101119.56;4898199;29;20036;-85
2022/04/26 14:51:44;;;;;;;1.80;1.45;;;;;;;22.56;27.73;101125.91;4898293;29;20036;-86
2022/04/26 14:54:09;;;;;;;3.72;2.20;;;;;;;22.67;27.36;101122.09;4899159;29;20586;-86
2022/04/26 14:56:34;;;;;;;2.47;1.85;;;;;;;22.52;27.26;101116.53;4897624;29;20475;-86
2022/04/26 14:59:02;;;;;;;5.25;2.05;;;;;;;22.54;28.37;101119.06;4898755;29;20029;-86
2022/04/26 15:01:29;;;;;;;4.38;1.80;;;;;;;22.52;27.74;101113.03;4898866;29;20033;-86
2022/04/26 15:03:55;;;;;;;5.65;1.70;;;;;;;22.60;26.86;101118.41;4898056;29;20068;-86
2022/04/26 15:06:20;;;;;;;3.10;2.13;;;;;;;22.25;26.68;101120.31;4898646;29;20024;-86
2022/04/26 15:11:30;;;;;;;3.30;1.38;;;;;;;21.73;27.85;101118.59;4898328;29;20035;-87
2022/04/26 15:16:39;;;;;;;4.53;1.60;;;;;;;21.74;27.74;101117.63;4898347;29;20100;-87
2022/04/26 15:19:06;;;;;;;2.85;1.70;;;;;;;22.00;28.22;101124.75;4912535;29;20029;-86
2022/04/26 15:21:31;;;;;;;2.50;1.63;;;;;;;21.41;28.11;101118.44;4898251;29;20032;-87
2022/04/26 15:23:56;;;;;;;3.75;1.60;;;;;;;22.03;27.94;101108.38;4898381;29;20464;-86
2022/04/26 15:26:24;;;;;;;4.65;1.88;;;;;;;22.63;27.72;101126.09;4898270;29;20543;-86
2022/04/26 15:28:50;;;;;;;3.90;2.10;;;;;;;22.50;28.11;101118.53;4900616;29;20494;-87
2022/04/26 15:31:18;;;;;;;2.45;1.83;;;;;;;22.58;28.35;101118.56;4899181;29;20068;-86
2022/04/26 15:33:46;;;;;;;5.70;1.40;;;;;;;22.07;26.91;101124.94;4898003;29;20029;-86
2022/04/26 15:36:11;;;;;;;1.90;1.40;;;;;;;21.62;27.79;101123.41;4919153;29;20060;-85